TimeHST,TemperatureF,Dew PointF,Humidity,Sea Level PressureIn,VisibilityMPH,Wind Direction,Wind SpeedMPH,Gust SpeedMPH,PrecipitationIn,Events,Conditions,WindDirDegrees,DateUTC
12:53 AM,68.0,64.9,90,30.05,10.0,SW,5.8,-,N/A,,Scattered Clouds,230,2012-09-06 10:53:00
1:53 AM,68.0,64.0,87,30.03,10.0,WSW,5.8,-,0.00,,Partly Cloudy,240,2012-09-06 11:53:00
2:53 AM,69.1,64.9,87,30.03,10.0,Calm,Calm,-,0.00,Rain,Light Rain,0,2012-09-06 12:53:00
3:53 AM,66.9,64.0,90,30.02,10.0,West,6.9,-,0.04,,Scattered Clouds,260,2012-09-06 13:53:00
4:53 AM,68.0,64.0,87,30.02,10.0,WSW,5.8,-,N/A,,Partly Cloudy,240,2012-09-06 14:53:00
5:53 AM,66.9,62.1,84,30.03,10.0,SW,6.9,-,N/A,,Scattered Clouds,230,2012-09-06 15:53:00
6:53 AM,68.0,62.1,81,30.04,10.0,SW,6.9,-,N/A,,Scattered Clouds,230,2012-09-06 16:53:00
7:53 AM,73.9,64.9,73,30.04,10.0,WSW,4.6,-,N/A,,Scattered Clouds,240,2012-09-06 17:53:00
8:53 AM,79.0,66.0,64,30.05,10.0,East,4.6,-,N/A,,Scattered Clouds,100,2012-09-06 18:53:00
9:53 AM,80.1,64.9,60,30.04,10.0,East,5.8,-,N/A,,Scattered Clouds,100,2012-09-06 19:53:00
10:53 AM,82.9,68.0,60,30.03,10.0,ENE,8.1,-,N/A,,Scattered Clouds,70,2012-09-06 20:53:00
11:53 AM,78.1,68.0,71,30.02,10.0,East,15.0,-,N/A,,Mostly Cloudy,100,2012-09-06 21:53:00
12:53 PM,80.1,66.9,64,30.00,10.0,ESE,6.9,-,N/A,,Mostly Cloudy,110,2012-09-06 22:53:00
1:53 PM,82.9,64.0,53,29.97,10.0,East,6.9,-,N/A,,Scattered Clouds,90,2012-09-06 23:53:00
2:53 PM,81.0,64.9,58,29.96,10.0,East,8.1,-,N/A,,Scattered Clouds,90,2012-09-07 00:53:00
3:53 PM,80.1,66.9,64,29.96,10.0,East,6.9,-,N/A,,Mostly Cloudy,90,2012-09-07 01:53:00
4:53 PM,78.1,68.0,71,29.96,10.0,ESE,5.8,-,N/A,,Overcast,110,2012-09-07 02:53:00
5:53 PM,75.9,68.0,76,29.97,10.0,East,3.5,-,N/A,,Partly Cloudy,100,2012-09-07 03:53:00
6:53 PM,73.9,68.0,82,29.98,10.0,Calm,Calm,-,N/A,,Partly Cloudy,0,2012-09-07 04:53:00
7:53 PM,73.0,68.0,84,30.00,10.0,SW,3.5,-,N/A,,Scattered Clouds,230,2012-09-07 05:53:00
8:53 PM,72.0,68.0,87,30.01,10.0,WSW,5.8,-,N/A,,Overcast,240,2012-09-07 06:53:00
9:53 PM,72.0,68.0,87,30.02,10.0,South,3.5,-,0.00,,Overcast,180,2012-09-07 07:53:00
10:53 PM,70.0,66.9,90,30.01,10.0,SW,4.6,-,N/A,,Overcast,220,2012-09-07 08:53:00
11:53 PM,69.1,66.0,90,30.01,10.0,Calm,Calm,-,N/A,,Partly Cloudy,0,2012-09-07 09:53:00